createdAt,value
2018-12-27T00:01:04.505Z,2.60
2018-12-27T00:03:38.221Z,2.60
2018-12-27T00:06:08.656Z,2.50
2018-12-27T00:08:39.366Z,2.50
2018-12-27T00:11:09.838Z,2.50
2018-12-27T00:13:40.339Z,2.40
2018-12-27T00:16:10.700Z,2.40
2018-12-27T00:18:41.239Z,2.40
2018-12-27T00:21:11.654Z,2.40
2018-12-27T00:23:42.072Z,2.30
2018-12-27T00:26:12.524Z,2.40
2018-12-27T00:28:43.096Z,2.30
2018-12-27T00:31:13.673Z,2.30
2018-12-27T00:33:44.341Z,2.30
2018-12-27T00:36:15.019Z,2.30
2018-12-27T00:38:45.918Z,2.20
2018-12-27T00:41:16.670Z,2.30
2018-12-27T00:43:47.305Z,2.20
2018-12-27T00:46:17.937Z,2.20
2018-12-27T00:48:48.588Z,2.20
2018-12-27T00:51:19.325Z,2.10
2018-12-27T00:53:50.297Z,2.10
2018-12-27T00:56:20.899Z,2.10
2018-12-27T00:58:51.592Z,2.00
2018-12-27T01:01:22.245Z,2.00
2018-12-27T01:03:52.914Z,2.00
2018-12-27T01:06:23.516Z,2.00
2018-12-27T01:08:54.430Z,2.00
2018-12-27T01:11:25.041Z,2.00
2018-12-27T01:13:55.726Z,1.90
2018-12-27T01:16:26.332Z,1.90
2018-12-27T01:18:56.977Z,1.90
2018-12-27T01:21:27.623Z,1.80
2018-12-27T01:23:58.212Z,1.80
2018-12-27T01:26:28.897Z,1.80
2018-12-27T01:28:59.953Z,1.80
2018-12-27T01:31:30.601Z,1.80
2018-12-27T01:34:01.257Z,1.70
2018-12-27T01:36:32.140Z,1.80
2018-12-27T01:39:04.124Z,1.70
2018-12-27T01:41:34.717Z,1.80
2018-12-27T01:44:05.342Z,1.70
2018-12-27T01:46:35.955Z,1.60
2018-12-27T01:49:06.571Z,1.60
2018-12-27T01:51:37.207Z,1.50
2018-12-27T01:54:07.865Z,1.50
2018-12-27T01:56:38.471Z,1.50
2018-12-27T01:59:09.178Z,1.50
2018-12-27T02:01:39.793Z,1.50
2018-12-27T02:04:10.446Z,1.50
2018-12-27T02:06:41.091Z,1.40
2018-12-27T02:09:12.115Z,1.40
2018-12-27T02:11:42.722Z,1.40
2018-12-27T02:14:13.644Z,1.30
2018-12-27T02:16:44.278Z,1.30
2018-12-27T02:19:14.908Z,1.30
2018-12-27T02:21:45.541Z,1.30
2018-12-27T02:24:16.160Z,1.30
2018-12-27T02:26:46.786Z,1.30
2018-12-27T02:29:17.447Z,1.30
2018-12-27T02:31:48.059Z,1.30
2018-12-27T02:34:18.711Z,1.30
2018-12-27T02:36:50.807Z,1.30
2018-12-27T02:39:21.704Z,1.30
2018-12-27T02:41:52.312Z,1.20
2018-12-27T02:44:22.969Z,1.20
2018-12-27T02:46:53.583Z,1.20
2018-12-27T02:49:24.237Z,1.30
2018-12-27T02:51:54.838Z,1.30
2018-12-27T02:54:25.497Z,1.20
2018-12-27T02:56:56.105Z,1.30
2018-12-27T02:59:26.723Z,1.30
2018-12-27T03:01:57.327Z,1.30
2018-12-27T03:04:27.967Z,1.20
2018-12-27T03:06:58.592Z,1.30
2018-12-27T03:09:29.517Z,1.30
2018-12-27T03:12:00.121Z,1.20
2018-12-27T03:14:32.155Z,1.20
2018-12-27T03:17:02.790Z,1.30
2018-12-27T03:19:34.173Z,1.20
2018-12-27T03:22:04.806Z,1.30
2018-12-27T03:24:35.532Z,1.30
2018-12-27T03:27:06.178Z,1.30
2018-12-27T03:29:36.852Z,1.30
2018-12-27T03:32:07.483Z,1.30
2018-12-27T03:34:38.115Z,1.30
2018-12-27T03:37:08.740Z,1.20
2018-12-27T03:39:39.638Z,1.20
2018-12-27T03:42:10.273Z,1.20
2018-12-27T03:44:40.890Z,1.10
2018-12-27T03:47:11.491Z,1.10
2018-12-27T03:49:42.141Z,1.10
2018-12-27T03:52:14.411Z,1.10
2018-12-27T03:54:45.038Z,1.10
2018-12-27T03:57:15.638Z,1.10
2018-12-27T03:59:47.184Z,1.00
2018-12-27T04:02:17.820Z,1.00
2018-12-27T04:04:48.637Z,0.90
2018-12-27T04:07:19.243Z,0.90
2018-12-27T04:09:49.892Z,0.90
2018-12-27T04:12:20.779Z,0.90
2018-12-27T04:14:51.527Z,0.90
2018-12-27T04:17:21.970Z,0.80
2018-12-27T04:19:52.746Z,0.90
2018-12-27T04:22:23.207Z,0.80
2018-12-27T04:24:53.858Z,0.80
2018-12-27T04:27:24.381Z,0.80
2018-12-27T04:29:54.782Z,0.80
2018-12-27T04:32:26.290Z,0.80
2018-12-27T04:34:57.330Z,0.90
2018-12-27T04:37:27.774Z,0.90
2018-12-27T04:39:58.586Z,0.90
2018-12-27T04:42:29.661Z,0.90
2018-12-27T04:45:00.967Z,0.90
2018-12-27T04:47:31.348Z,0.80
2018-12-27T04:50:01.740Z,0.80
2018-12-27T04:52:32.186Z,0.80
2018-12-27T04:55:02.779Z,0.80
2018-12-27T04:57:33.451Z,0.80
2018-12-27T05:00:04.397Z,0.80
2018-12-27T05:02:34.848Z,0.90
2018-12-27T05:05:05.634Z,0.90
2018-12-27T05:07:36.001Z,0.90
2018-12-27T05:10:06.971Z,0.90
2018-12-27T05:12:37.369Z,0.90
2018-12-27T05:15:08.002Z,0.90
2018-12-27T05:17:38.467Z,1.00
2018-12-27T05:20:09.038Z,1.00
2018-12-27T05:22:39.662Z,1.00
2018-12-27T05:25:10.159Z,1.00
2018-12-27T05:27:40.607Z,1.00
2018-12-27T05:30:11.079Z,1.00
2018-12-27T05:32:41.872Z,1.00
2018-12-27T05:35:12.291Z,1.00
2018-12-27T05:37:42.751Z,1.00
2018-12-27T05:40:13.375Z,1.10
2018-12-27T05:42:43.896Z,1.10
2018-12-27T05:45:14.354Z,1.10
2018-12-27T05:47:44.782Z,1.10
2018-12-27T05:50:15.258Z,1.00
2018-12-27T05:52:45.751Z,1.00
2018-12-27T05:55:16.237Z,1.10
2018-12-27T05:57:46.690Z,1.10
2018-12-27T06:00:17.076Z,1.10
2018-12-27T06:02:47.539Z,1.10
2018-12-27T06:05:18.053Z,1.10
2018-12-27T06:07:48.573Z,1.20
2018-12-27T06:10:19.051Z,1.10
2018-12-27T06:12:50.701Z,1.10
2018-12-27T06:15:21.255Z,1.20
2018-12-27T06:17:51.680Z,1.20
2018-12-27T06:20:22.090Z,1.20
2018-12-27T06:22:52.690Z,1.20
2018-12-27T06:25:23.201Z,1.10
2018-12-27T06:27:55.006Z,1.10
2018-12-27T06:30:25.646Z,1.10
2018-12-27T06:32:56.192Z,1.10
2018-12-27T07:13:28.396Z,1.20
2018-12-27T07:15:58.783Z,1.20
2018-12-27T07:18:33.250Z,1.20
2018-12-27T07:21:04.620Z,1.20
2018-12-27T07:23:35.487Z,1.50
2018-12-27T07:26:06.301Z,1.20
2018-12-27T07:28:37.060Z,1.30
2018-12-27T07:31:07.735Z,1.30
2018-12-27T07:33:38.492Z,1.40
2018-12-27T07:36:16.299Z,1.50
2018-12-27T07:38:47.187Z,1.30
2018-12-27T07:41:18.129Z,1.40
2018-12-27T07:43:48.561Z,1.50
2018-12-27T07:46:19.028Z,1.50
2018-12-27T07:48:49.475Z,1.50
2018-12-27T07:51:20.676Z,1.60
2018-12-27T07:53:51.574Z,1.60
2018-12-27T07:56:22.829Z,1.60
2018-12-27T07:58:53.791Z,1.60
2018-12-27T08:01:24.589Z,1.60
2018-12-27T08:03:55.525Z,1.60
2018-12-27T08:06:28.182Z,1.60
2018-12-27T08:08:59.040Z,1.60
2018-12-27T08:11:29.762Z,1.70
2018-12-27T08:14:00.420Z,1.70
2018-12-27T08:16:31.409Z,1.70
2018-12-27T08:19:02.526Z,1.80
2018-12-27T08:21:33.024Z,1.80
2018-12-27T08:24:03.542Z,1.90
2018-12-27T08:26:34.087Z,2.00
2018-12-27T08:29:04.589Z,2.20
2018-12-27T08:31:38.529Z,2.20
2018-12-27T08:34:09.320Z,2.20
2018-12-27T08:36:40.417Z,2.20
2018-12-27T08:39:11.091Z,2.20
2018-12-27T08:41:42.557Z,2.20
2018-12-27T08:44:12.983Z,2.30
2018-12-27T08:46:43.502Z,2.30
2018-12-27T08:49:14.035Z,2.40
2018-12-27T08:51:44.671Z,2.50
2018-12-27T08:54:15.221Z,2.60
2018-12-27T08:56:45.610Z,2.70
2018-12-27T08:59:15.992Z,2.80
2018-12-27T09:01:46.480Z,2.90
2018-12-27T09:04:16.863Z,3.00
2018-12-27T09:06:47.399Z,3.00
2018-12-27T09:09:17.966Z,3.10
2018-12-27T09:11:48.372Z,3.20
2018-12-27T09:14:18.821Z,3.20
2018-12-27T09:16:49.502Z,3.30
2018-12-27T09:19:19.870Z,3.20
2018-12-27T09:21:50.284Z,3.30
2018-12-27T09:24:20.712Z,3.20
2018-12-27T09:26:52.167Z,3.20
2018-12-27T09:29:22.751Z,3.30
2018-12-27T09:31:53.208Z,3.20
2018-12-27T09:34:23.975Z,3.30
2018-12-27T09:36:54.770Z,3.30
2018-12-27T09:39:25.300Z,3.20
2018-12-27T09:41:55.942Z,3.30
2018-12-27T09:44:26.906Z,3.40
2018-12-27T09:46:57.310Z,3.30
2018-12-27T09:49:27.770Z,3.40
2018-12-27T09:52:01.973Z,3.40
2018-12-27T09:54:30.581Z,3.30
2018-12-27T09:57:00.976Z,3.30
2018-12-27T09:59:31.366Z,3.30
2018-12-27T10:02:01.769Z,3.30
2018-12-27T10:04:32.421Z,3.20
2018-12-27T10:07:02.926Z,3.20
2018-12-27T10:09:33.368Z,3.20
2018-12-27T10:12:03.879Z,3.20
2018-12-27T10:14:34.257Z,3.20
2018-12-27T10:17:05.092Z,3.20
2018-12-27T10:19:35.690Z,3.20
2018-12-27T10:22:06.270Z,3.20
2018-12-27T10:24:36.763Z,3.20
2018-12-27T10:27:07.436Z,3.20
2018-12-27T10:29:38.032Z,3.30
2018-12-27T10:32:08.583Z,3.40
2018-12-27T10:34:38.982Z,3.30
2018-12-27T10:37:09.498Z,3.40
2018-12-27T10:39:40.098Z,3.40
2018-12-27T10:42:10.642Z,3.50
2018-12-27T10:44:41.214Z,3.50
2018-12-27T10:47:11.624Z,3.50
2018-12-27T10:49:42.124Z,3.60
2018-12-27T10:52:12.694Z,3.50
2018-12-27T10:54:43.227Z,3.60
2018-12-27T10:57:13.788Z,3.60
2018-12-27T10:59:45.543Z,3.60
2018-12-27T11:02:16.339Z,3.60
2018-12-27T11:04:46.807Z,3.60
2018-12-27T11:07:17.220Z,3.70
2018-12-27T11:09:48.039Z,3.70
2018-12-27T11:12:18.568Z,3.90
2018-12-27T11:14:49.065Z,3.90
2018-12-27T11:17:19.583Z,4.00
2018-12-27T11:19:50.088Z,3.90
2018-12-27T11:22:20.748Z,3.90
2018-12-27T11:24:51.224Z,3.90
2018-12-27T11:27:21.707Z,3.90
2018-12-27T11:29:52.258Z,4.00
2018-12-27T11:32:22.879Z,3.90
2018-12-27T11:34:53.456Z,4.00
2018-12-27T11:37:23.996Z,4.10
2018-12-27T11:39:54.717Z,4.10
2018-12-27T11:42:25.116Z,4.10
2018-12-27T11:44:55.672Z,4.00
2018-12-27T11:47:26.760Z,4.00
2018-12-27T11:49:57.424Z,4.00
2018-12-27T11:52:27.888Z,4.00
2018-12-27T11:54:58.896Z,4.00
2018-12-27T11:57:29.454Z,4.10
2018-12-27T12:00:00.702Z,4.10
2018-12-27T12:02:31.521Z,4.00
2018-12-27T12:05:02.120Z,4.10
2018-12-27T12:07:32.571Z,4.10
2018-12-27T12:10:03.436Z,4.20
2018-12-27T12:12:34.373Z,4.30
2018-12-27T12:15:07.444Z,4.40
2018-12-27T12:17:37.904Z,4.40
2018-12-27T12:20:08.802Z,4.40
2018-12-27T12:22:40.862Z,4.50
2018-12-27T12:25:11.421Z,4.60
2018-12-27T12:27:41.781Z,4.60
2018-12-27T12:30:12.524Z,4.60
2018-12-27T12:32:43.046Z,4.60
2018-12-27T12:35:13.601Z,4.60
2018-12-27T12:37:44.986Z,4.60
2018-12-27T12:40:15.997Z,4.50
2018-12-27T12:42:46.584Z,4.50
2018-12-27T12:45:17.242Z,4.50
2018-12-27T12:47:47.853Z,4.40
2018-12-27T12:50:18.427Z,4.40
2018-12-27T12:52:49.028Z,4.40
2018-12-27T12:55:20.900Z,4.30
2018-12-27T12:57:51.422Z,4.30
2018-12-27T13:00:21.900Z,4.20
2018-12-27T13:02:52.425Z,4.30
2018-12-27T13:05:23.320Z,4.30
2018-12-27T13:07:53.875Z,4.40
2018-12-27T13:10:24.634Z,4.30
2018-12-27T13:12:55.186Z,4.40
2018-12-27T13:15:25.721Z,4.40
2018-12-27T13:17:57.357Z,4.40
2018-12-27T13:20:27.921Z,4.40
2018-12-27T13:22:58.417Z,4.40
2018-12-27T13:25:29.848Z,4.40
2018-12-27T13:28:00.359Z,4.40
2018-12-27T13:30:30.880Z,4.40
2018-12-27T13:33:01.419Z,4.40
2018-12-27T13:35:31.840Z,4.40
2018-12-27T13:38:02.288Z,4.40
2018-12-27T13:40:32.972Z,4.50
2018-12-27T13:43:03.535Z,4.50
2018-12-27T13:45:33.997Z,4.60
2018-12-27T13:48:04.578Z,4.60
2018-12-27T13:50:35.146Z,4.60
2018-12-27T13:53:05.716Z,4.60
2018-12-27T13:55:36.122Z,4.60
2018-12-27T13:58:06.584Z,4.60
2018-12-27T14:00:37.160Z,4.70
2018-12-27T14:03:07.664Z,4.70
2018-12-27T14:05:38.181Z,4.80
2018-12-27T14:08:08.825Z,4.70
2018-12-27T14:10:40.304Z,4.70
2018-12-27T14:13:11.603Z,4.60
2018-12-27T14:15:43.845Z,4.60
2018-12-27T14:18:14.317Z,4.60
2018-12-27T14:20:44.881Z,4.60
2018-12-27T14:23:15.339Z,4.50
2018-12-27T14:25:45.815Z,4.50
2018-12-27T14:28:16.252Z,4.60
2018-12-27T14:30:46.746Z,4.50
2018-12-27T14:33:17.220Z,4.50
2018-12-27T14:35:47.669Z,4.50
2018-12-27T14:38:18.117Z,4.40
2018-12-27T14:40:48.752Z,4.50
2018-12-27T14:43:19.218Z,4.50
2018-12-27T14:45:50.136Z,4.50
2018-12-27T14:48:20.756Z,4.60
2018-12-27T14:50:51.330Z,4.70
2018-12-27T14:53:21.814Z,4.60
2018-12-27T14:55:52.397Z,4.60
2018-12-27T14:58:22.769Z,4.60
2018-12-27T15:00:53.479Z,4.60
2018-12-27T15:03:23.925Z,4.60
2018-12-27T15:05:54.973Z,4.50
2018-12-27T15:08:25.519Z,4.50
2018-12-27T15:10:56.419Z,4.50
2018-12-27T15:13:27.001Z,4.50
2018-12-27T15:15:57.472Z,4.40
2018-12-27T15:18:28.049Z,4.40
2018-12-27T15:20:58.671Z,4.30
2018-12-27T15:23:29.182Z,4.30
2018-12-27T15:25:59.742Z,4.30
2018-12-27T15:28:30.224Z,4.30
2018-12-27T15:31:00.653Z,4.30
2018-12-27T15:33:32.903Z,4.30
2018-12-27T15:36:03.470Z,4.20
2018-12-27T15:38:34.028Z,4.20
2018-12-27T15:41:05.957Z,4.20
2018-12-27T15:43:36.373Z,4.10
2018-12-27T15:46:07.105Z,4.10
2018-12-27T15:48:37.502Z,4.10
2018-12-27T15:51:08.268Z,4.10
2018-12-27T15:53:38.684Z,4.10
2018-12-27T15:56:09.111Z,4.10
2018-12-27T15:58:39.573Z,4.00
2018-12-27T16:01:10.023Z,4.00
2018-12-27T16:03:40.566Z,4.00
2018-12-27T16:06:11.124Z,4.00
2018-12-27T16:08:41.707Z,4.00
2018-12-27T16:11:12.328Z,4.00
2018-12-27T16:13:42.983Z,3.90
2018-12-27T16:16:15.137Z,4.00
2018-12-27T16:18:45.539Z,4.00
2018-12-27T16:21:16.007Z,4.00
2018-12-27T16:23:46.571Z,4.00
2018-12-27T16:26:17.005Z,3.90
2018-12-27T16:28:47.436Z,4.00
2018-12-27T16:31:17.979Z,3.90
2018-12-27T16:33:48.612Z,3.90
2018-12-27T16:36:19.165Z,4.10
2018-12-27T16:38:49.794Z,3.90
2018-12-27T16:41:20.419Z,3.90
2018-12-27T16:43:52.387Z,4.00
2018-12-27T16:46:22.821Z,4.00
2018-12-27T16:48:53.312Z,4.00
2018-12-27T16:51:23.834Z,4.00
2018-12-27T16:53:54.292Z,4.00
2018-12-27T16:56:24.771Z,4.00
2018-12-27T16:58:55.160Z,3.90
2018-12-27T17:01:25.781Z,3.90
2018-12-27T17:03:56.298Z,3.90
2018-12-27T17:06:28.045Z,4.00
2018-12-27T17:08:59.343Z,4.00
2018-12-27T17:11:29.965Z,4.00
2018-12-27T17:14:00.774Z,4.10
2018-12-27T17:16:31.515Z,4.10
2018-12-27T17:19:05.290Z,4.00
2018-12-27T17:21:35.915Z,4.00
2018-12-27T17:24:07.719Z,4.00
2018-12-27T17:26:38.245Z,4.00
2018-12-27T17:29:09.677Z,4.00
2018-12-27T17:31:40.192Z,4.00
2018-12-27T17:34:10.889Z,4.00
2018-12-27T17:36:41.368Z,3.90
2018-12-27T17:39:12.011Z,4.00
2018-12-27T17:41:42.516Z,4.00
2018-12-27T17:44:13.362Z,4.00
2018-12-27T17:46:43.870Z,3.90
2018-12-27T17:49:14.685Z,3.90
2018-12-27T17:51:45.312Z,3.90
2018-12-27T17:54:18.628Z,4.00
2018-12-27T17:56:49.142Z,3.90
2018-12-27T17:59:19.949Z,3.90
2018-12-27T18:01:50.460Z,3.90
2018-12-27T18:04:21.037Z,3.90
2018-12-27T18:06:51.483Z,3.90
2018-12-27T18:09:22.204Z,3.90
2018-12-27T18:11:52.802Z,3.90
2018-12-27T18:14:23.900Z,3.90
2018-12-27T18:16:54.413Z,3.80
2018-12-27T18:19:25.007Z,3.90
2018-12-27T18:21:55.395Z,3.90
2018-12-27T18:24:25.807Z,3.90
2018-12-27T18:26:56.255Z,3.80
2018-12-27T18:29:28.567Z,3.90
2018-12-27T18:31:59.098Z,3.90
2018-12-27T18:34:29.669Z,3.90
2018-12-27T18:37:00.212Z,3.90
2018-12-27T18:39:30.701Z,3.90
2018-12-27T18:42:01.825Z,3.90
2018-12-27T18:44:32.404Z,4.00
2018-12-27T18:47:02.804Z,4.00
2018-12-27T18:49:34.019Z,4.00
2018-12-27T18:52:04.594Z,3.90
2018-12-27T18:54:35.167Z,4.00
2018-12-27T18:57:05.772Z,3.90
2018-12-27T18:59:36.258Z,3.90
2018-12-27T19:02:06.988Z,3.90
2018-12-27T19:04:39.719Z,3.90
2018-12-27T19:07:10.183Z,3.90
2018-12-27T19:09:40.816Z,3.90
2018-12-27T19:13:07.764Z,3.90
2018-12-27T19:15:49.385Z,3.90
2018-12-27T19:18:24.636Z,4.00
2018-12-27T19:20:59.182Z,3.90
2018-12-27T19:23:30.946Z,4.00
2018-12-27T19:26:01.864Z,4.10
2018-12-27T19:28:32.860Z,4.10
2018-12-27T19:31:05.044Z,4.10
2018-12-27T19:33:35.418Z,4.30
2018-12-27T19:36:05.990Z,4.10
2018-12-27T19:38:36.549Z,4.10
2018-12-27T19:41:07.159Z,4.10
2018-12-27T19:43:37.824Z,4.10
2018-12-27T19:46:08.992Z,4.10
2018-12-27T19:48:39.367Z,4.10
2018-12-27T19:51:10.015Z,4.10
2018-12-27T19:53:43.290Z,4.10
2018-12-27T19:56:13.776Z,4.20
2018-12-27T19:58:44.448Z,4.20
2018-12-27T20:01:15.050Z,4.10
2018-12-27T20:03:45.480Z,4.20
2018-12-27T20:06:16.048Z,4.20
2018-12-27T20:08:46.605Z,4.20
2018-12-27T20:11:17.829Z,4.20
2018-12-27T20:13:51.067Z,4.20
2018-12-27T20:16:22.051Z,4.20
2018-12-27T20:18:52.665Z,4.20
2018-12-27T20:21:23.510Z,4.20
2018-12-27T20:23:54.677Z,4.20
2018-12-27T20:26:26.562Z,4.20
2018-12-27T20:29:00.180Z,4.20
2018-12-27T20:31:30.928Z,4.20
2018-12-27T20:34:01.650Z,4.30
2018-12-27T20:36:32.488Z,4.30
2018-12-27T20:39:04.313Z,4.40
2018-12-27T20:41:36.942Z,4.40
2018-12-27T20:44:08.429Z,4.30
2018-12-27T20:46:43.145Z,4.30
2018-12-27T20:49:17.747Z,4.20
2018-12-27T20:51:48.560Z,4.00
2018-12-27T20:54:19.206Z,4.10
2018-12-27T20:56:50.413Z,4.10
2018-12-27T20:59:20.975Z,4.10
2018-12-27T21:01:51.729Z,4.10
2018-12-27T21:04:22.256Z,4.10
2018-12-27T21:06:53.979Z,4.10
2018-12-27T21:09:24.763Z,4.10
2018-12-27T21:11:55.321Z,4.10
2018-12-27T21:14:25.746Z,4.10
2018-12-27T21:16:57.513Z,4.10
2018-12-27T21:19:27.984Z,4.10
2018-12-27T21:21:58.594Z,4.10
2018-12-27T21:24:29.068Z,4.10
2018-12-27T21:27:00.391Z,4.10
2018-12-27T21:29:30.881Z,4.10
2018-12-27T21:32:01.412Z,4.10
2018-12-27T21:34:33.730Z,4.10
2018-12-27T21:37:04.364Z,4.10
2018-12-27T21:39:34.976Z,4.10
2018-12-27T21:42:05.549Z,4.10
2018-12-27T21:44:36.105Z,4.10
2018-12-27T21:47:06.940Z,4.20
2018-12-27T21:49:37.394Z,4.10
2018-12-27T21:52:08.290Z,4.20
2018-12-27T21:54:38.814Z,4.20
2018-12-27T21:57:09.343Z,4.20
2018-12-27T21:59:40.028Z,4.20
2018-12-27T22:02:10.447Z,4.00
2018-12-27T22:04:40.999Z,4.00
2018-12-27T22:07:12.500Z,4.00
2018-12-27T22:09:42.873Z,4.00
2018-12-27T22:12:13.346Z,4.10
2018-12-27T22:14:44.656Z,4.00
2018-12-27T22:17:15.257Z,4.00
2018-12-27T22:19:45.794Z,4.00
2018-12-27T22:22:16.391Z,4.00
2018-12-27T22:24:47.203Z,4.00
2018-12-27T22:27:18.789Z,4.00
2018-12-27T22:29:49.205Z,4.00
2018-12-27T22:32:19.656Z,4.00
2018-12-27T22:34:50.207Z,4.00
2018-12-27T22:37:21.011Z,4.00
2018-12-27T22:39:51.474Z,4.00
2018-12-27T22:42:21.900Z,4.10
2018-12-27T22:44:52.418Z,4.10
2018-12-27T22:47:24.278Z,4.10
2018-12-27T22:49:54.827Z,4.10
2018-12-27T22:52:25.391Z,4.10
2018-12-27T22:54:55.928Z,4.00
2018-12-27T22:57:26.461Z,4.10
2018-12-27T23:00:00.367Z,4.00
2018-12-27T23:02:30.915Z,4.00
2018-12-27T23:05:01.520Z,4.00
2018-12-27T23:07:32.089Z,4.00
2018-12-27T23:10:03.054Z,4.10
2018-12-27T23:12:33.689Z,4.10
2018-12-27T23:15:04.585Z,4.10
2018-12-27T23:17:35.198Z,4.00
2018-12-27T23:20:06.510Z,4.10
2018-12-27T23:22:37.927Z,4.10
2018-12-27T23:25:08.780Z,4.10
2018-12-27T23:27:41.871Z,4.10
2018-12-27T23:30:19.275Z,4.10
2018-12-27T23:32:45.065Z,4.10
2018-12-27T23:35:17.367Z,4.10
2018-12-27T23:37:47.928Z,4.10
2018-12-27T23:40:18.378Z,4.10
2018-12-27T23:42:48.944Z,4.10
2018-12-27T23:45:19.540Z,4.00
2018-12-27T23:47:50.481Z,4.00
2018-12-27T23:50:21.323Z,4.00
2018-12-27T23:52:52.005Z,4.00
2018-12-27T23:55:22.670Z,4.00
2018-12-27T23:57:54.950Z,4.20
